createdAt,value
2022-08-26T00:04:38.559Z,19.01
2022-08-26T00:14:43.825Z,18.61
2022-08-26T00:24:48.192Z,18.45
2022-08-26T00:34:56.004Z,17.91
2022-08-26T00:45:00.402Z,17.47
2022-08-26T00:55:10.414Z,17.37
2022-08-26T01:05:18.351Z,17.56
2022-08-26T01:15:32.831Z,17.91
2022-08-26T01:25:46.774Z,17.68
2022-08-26T01:35:51.441Z,16.91
2022-08-26T01:45:59.053Z,16.77
2022-08-26T01:56:05.669Z,16.73
2022-08-26T02:06:11.372Z,17.44
2022-08-26T02:16:19.082Z,16.92
2022-08-26T02:26:27.165Z,17.08
2022-08-26T02:36:31.390Z,17.26
2022-08-26T02:46:36.302Z,18.47
2022-08-26T02:56:40.663Z,19.23
2022-08-26T03:06:47.042Z,20.80
2022-08-26T03:16:57.649Z,21.91
2022-08-26T03:27:07.472Z,23.58
2022-08-26T03:37:10.853Z,24.69
2022-08-26T03:47:27.337Z,25.46
2022-08-26T03:57:41.340Z,25.86
2022-08-26T04:07:47.940Z,26.81
2022-08-26T04:17:52.715Z,27.93
2022-08-26T04:27:58.701Z,29.28
2022-08-26T04:38:03.070Z,29.73
2022-08-26T04:48:11.183Z,29.87
2022-08-26T04:58:16.047Z,30.33
2022-08-26T05:08:22.969Z,30.57
2022-08-26T05:18:30.536Z,31.10
2022-08-26T05:28:46.629Z,31.16
2022-08-26T05:38:52.366Z,31.31
2022-08-26T05:48:58.220Z,30.94
2022-08-26T05:59:03.312Z,30.98
2022-08-26T06:09:11.013Z,30.84
2022-08-26T06:19:17.505Z,31.17
2022-08-26T06:29:25.879Z,30.81
2022-08-26T06:39:30.780Z,30.94
2022-08-26T06:49:38.651Z,30.81
2022-08-26T06:59:43.849Z,30.46
2022-08-26T07:09:52.438Z,30.34
2022-08-26T07:19:56.464Z,29.85
2022-08-26T07:30:09.876Z,30.18
2022-08-26T07:40:22.686Z,29.17
2022-08-26T07:50:48.792Z,28.65
2022-08-26T08:00:52.876Z,28.38
2022-08-26T08:10:59.750Z,28.56
2022-08-26T08:21:21.397Z,28.92
2022-08-26T08:42:14.868Z,29.70
2022-08-26T08:52:30.175Z,30.46
2022-08-26T09:02:42.644Z,30.42
2022-08-26T09:12:49.331Z,30.63
2022-08-26T09:22:53.605Z,30.03
2022-08-26T09:33:11.123Z,29.99
2022-08-26T09:43:22.167Z,29.91
2022-08-26T09:53:30.982Z,30.79
2022-08-26T10:03:38.632Z,31.29
2022-08-26T10:13:49.331Z,31.65
2022-08-26T10:24:01.062Z,31.72
2022-08-26T10:34:12.585Z,31.79
2022-08-26T10:55:07.359Z,31.35
2022-08-26T11:05:24.679Z,31.43
2022-08-26T11:16:08.044Z,30.75
2022-08-26T11:26:36.062Z,31.23
2022-08-26T11:37:00.920Z,31.29
2022-08-26T11:47:12.666Z,32.09
2022-08-26T11:57:17.908Z,31.19
2022-08-26T12:07:30.210Z,31.03
2022-08-26T12:17:35.418Z,30.47
2022-08-26T12:27:53.107Z,31.17
2022-08-26T12:37:57.224Z,31.19
2022-08-26T12:48:11.107Z,30.84
2022-08-26T12:58:24.238Z,30.88
2022-08-26T13:08:30.038Z,30.60
2022-08-26T13:18:38.089Z,31.34
2022-08-26T13:28:44.317Z,31.25
2022-08-26T13:38:48.582Z,31.33
2022-08-26T13:48:58.262Z,31.15
2022-08-26T13:59:06.984Z,30.98
2022-08-26T14:09:13.087Z,30.87
2022-08-26T14:19:17.153Z,30.74
2022-08-26T14:29:25.486Z,29.83
2022-08-26T14:39:35.822Z,29.07
2022-08-26T14:49:40.929Z,28.85
2022-08-26T14:59:49.959Z,29.29
2022-08-26T15:09:54.903Z,29.54
2022-08-26T15:19:58.602Z,29.32
2022-08-26T15:30:07.054Z,28.95
2022-08-26T15:40:12.167Z,28.64
2022-08-26T15:50:16.968Z,27.78
2022-08-26T16:00:20.967Z,27.51
2022-08-26T16:10:25.469Z,26.98
2022-08-26T16:20:28.876Z,27.05
2022-08-26T16:30:33.612Z,26.74
2022-08-26T16:40:38.203Z,26.39
2022-08-26T16:50:42.724Z,26.04
2022-08-26T17:00:46.011Z,25.47
2022-08-26T17:10:50.617Z,25.39
2022-08-26T17:21:03.249Z,24.96
2022-08-26T17:31:09.861Z,25.11
2022-08-26T17:41:15.605Z,24.93
2022-08-26T17:51:21.654Z,25.20
2022-08-26T18:01:27.278Z,25.00
2022-08-26T18:11:32.873Z,24.98
2022-08-26T18:21:37.239Z,24.29
2022-08-26T18:31:42.830Z,24.25
2022-08-26T18:41:47.716Z,24.02
2022-08-26T18:51:52.825Z,24.35
2022-08-26T19:01:56.261Z,24.01
2022-08-26T19:12:02.091Z,23.53
2022-08-26T19:22:06.314Z,22.61
2022-08-26T19:32:13.095Z,22.33
2022-08-26T19:42:17.258Z,22.29
2022-08-26T19:52:24.086Z,22.40
2022-08-26T20:02:36.744Z,22.27
2022-08-26T20:12:42.657Z,21.75
2022-08-26T20:22:47.993Z,21.43
2022-08-26T20:32:54.065Z,21.36
2022-08-26T20:42:57.233Z,21.47
2022-08-26T20:53:01.758Z,21.62
2022-08-26T21:03:05.005Z,21.26
2022-08-26T21:13:11.862Z,21.02
2022-08-26T21:23:15.130Z,20.77
2022-08-26T21:33:20.209Z,20.62
2022-08-26T21:43:34.708Z,20.23
2022-08-26T21:53:40.810Z,20.12
2022-08-26T22:03:46.716Z,19.76
2022-08-26T22:13:53.113Z,19.74
2022-08-26T22:23:59.499Z,19.65
2022-08-26T22:34:07.219Z,19.77
2022-08-26T22:44:12.182Z,19.87
2022-08-26T22:54:18.046Z,19.82
2022-08-26T23:04:22.082Z,19.02
2022-08-26T23:14:27.778Z,18.15
2022-08-26T23:24:30.966Z,17.94
2022-08-26T23:34:54.228Z,18.47
2022-08-26T23:44:57.901Z,18.60
2022-08-26T23:55:02.829Z,18.43
